createdAt,value
2022-09-20T00:00:01.406Z,8.40
2022-09-20T00:02:28.028Z,8.09
2022-09-20T00:04:54.686Z,8.26
2022-09-20T00:07:21.056Z,8.12
2022-09-20T00:09:47.736Z,8.01
2022-09-20T00:12:14.355Z,7.89
2022-09-20T00:14:40.917Z,8.15
2022-09-20T00:17:07.463Z,8.17
2022-09-20T00:19:34.093Z,7.69
2022-09-20T00:22:00.471Z,8.18
2022-09-20T00:24:26.832Z,8.29
2022-09-20T00:26:53.721Z,8.13
2022-09-20T00:29:20.188Z,7.73
2022-09-20T00:31:46.578Z,8.11
2022-09-20T00:34:13.585Z,8.15
2022-09-20T00:36:39.946Z,7.81
2022-09-20T00:39:06.320Z,7.76
2022-09-20T00:41:33.152Z,7.57
2022-09-20T00:43:59.631Z,6.94
2022-09-20T00:46:26.053Z,7.21
2022-09-20T00:48:52.532Z,6.83
2022-09-20T00:51:18.922Z,6.38
2022-09-20T00:53:45.290Z,6.98
2022-09-20T00:56:11.778Z,7.27
2022-09-20T00:58:38.122Z,7.44
2022-09-20T01:01:04.636Z,7.87
2022-09-20T01:03:31.024Z,7.92
2022-09-20T01:05:57.497Z,7.77
2022-09-20T01:08:23.937Z,7.31
2022-09-20T01:10:50.606Z,7.53
2022-09-20T01:13:17.036Z,7.66
2022-09-20T01:15:43.652Z,7.12
2022-09-20T01:18:10.102Z,7.42
2022-09-20T01:20:36.683Z,7.40
2022-09-20T01:23:03.171Z,7.48
2022-09-20T01:25:29.666Z,7.77
2022-09-20T01:27:57.141Z,7.70
2022-09-20T01:30:23.556Z,6.41
2022-09-20T01:32:50.319Z,6.76
2022-09-20T01:35:16.706Z,7.23
2022-09-20T01:37:43.182Z,7.44
2022-09-20T01:40:10.586Z,7.46
2022-09-20T01:42:37.176Z,7.05
2022-09-20T01:45:03.595Z,7.56
2022-09-20T01:47:30.027Z,7.40
2022-09-20T01:49:56.483Z,7.43
2022-09-20T01:52:23.048Z,7.03
2022-09-20T01:54:49.566Z,7.66
2022-09-20T01:57:15.919Z,7.05
2022-09-20T01:59:42.481Z,7.21
2022-09-20T02:02:09.173Z,6.99
2022-09-20T02:04:35.584Z,7.07
2022-09-20T02:07:01.925Z,7.55
2022-09-20T02:09:28.853Z,7.87
2022-09-20T02:11:55.458Z,8.03
2022-09-20T02:14:21.781Z,8.00
2022-09-20T02:16:48.417Z,8.01
2022-09-20T02:19:15.083Z,8.23
2022-09-20T02:21:41.420Z,8.12
2022-09-20T02:24:10.352Z,8.41
2022-09-20T02:26:37.175Z,7.70
2022-09-20T02:29:03.723Z,7.68
2022-09-20T02:31:30.165Z,8.01
2022-09-20T02:33:56.656Z,7.83
2022-09-20T02:36:23.086Z,7.51
2022-09-20T02:38:49.502Z,7.66
2022-09-20T02:41:15.944Z,7.82
2022-09-20T02:43:42.258Z,8.19
2022-09-20T02:46:08.689Z,7.64
2022-09-20T02:48:35.109Z,7.97
2022-09-20T02:51:01.493Z,7.75
2022-09-20T02:53:28.051Z,7.93
2022-09-20T02:55:54.489Z,8.02
2022-09-20T02:58:20.942Z,8.19
2022-09-20T03:00:47.526Z,8.18
2022-09-20T03:03:13.979Z,7.52
2022-09-20T03:05:40.330Z,7.32
2022-09-20T03:08:06.787Z,7.66
2022-09-20T03:10:33.248Z,7.99
2022-09-20T03:12:59.705Z,7.65
2022-09-20T03:15:26.145Z,7.67
2022-09-20T03:17:52.541Z,7.62
2022-09-20T03:20:18.948Z,7.35
2022-09-20T03:22:45.481Z,7.75
2022-09-20T03:25:11.850Z,7.64
2022-09-20T03:27:38.250Z,7.95
2022-09-20T03:30:04.799Z,7.86
2022-09-20T03:32:31.158Z,8.11
2022-09-20T03:34:57.484Z,8.22
2022-09-20T03:37:24.104Z,8.24
2022-09-20T03:39:50.684Z,8.15
2022-09-20T03:42:17.014Z,8.31
2022-09-20T03:44:43.590Z,8.21
2022-09-20T03:47:09.983Z,7.76
2022-09-20T03:49:36.430Z,8.06
2022-09-20T03:52:03.230Z,7.92
2022-09-20T03:54:29.803Z,8.18
2022-09-20T03:56:56.400Z,8.09
2022-09-20T03:59:23.040Z,7.73
2022-09-20T04:01:49.799Z,7.23
2022-09-20T04:04:16.212Z,7.49
2022-09-20T04:06:42.970Z,7.71
2022-09-20T04:09:09.329Z,7.94
2022-09-20T04:11:35.889Z,8.04
2022-09-20T04:14:02.400Z,7.89
2022-09-20T04:16:28.862Z,7.94
2022-09-20T04:18:55.434Z,7.84
2022-09-20T04:24:05.100Z,7.68
2022-09-20T04:26:31.557Z,7.60
2022-09-20T04:28:58.160Z,7.88
2022-09-20T04:31:24.801Z,8.00
2022-09-20T04:33:51.255Z,7.76
2022-09-20T04:36:17.863Z,7.75
2022-09-20T04:38:44.743Z,7.83
2022-09-20T04:41:11.394Z,8.12
2022-09-20T04:43:37.728Z,8.30
2022-09-20T04:46:04.166Z,8.35
2022-09-20T04:48:30.753Z,8.28
2022-09-20T04:50:57.112Z,8.23
2022-09-20T04:53:23.849Z,7.63
2022-09-20T04:55:50.613Z,7.64
2022-09-20T04:58:16.973Z,7.46
2022-09-20T05:00:43.388Z,7.19
2022-09-20T05:03:09.998Z,7.32
2022-09-20T05:05:36.453Z,8.00
2022-09-20T05:08:03.219Z,8.29
2022-09-20T05:10:30.340Z,8.23
2022-09-20T05:12:56.853Z,7.99
2022-09-20T05:15:23.179Z,8.19
2022-09-20T05:17:49.738Z,8.10
2022-09-20T05:20:16.163Z,8.28
2022-09-20T05:22:42.673Z,7.99
2022-09-20T05:25:09.145Z,8.05
2022-09-20T05:27:35.529Z,7.82
2022-09-20T05:30:05.196Z,7.84
2022-09-20T05:32:32.129Z,7.59
2022-09-20T05:34:58.463Z,7.88
2022-09-20T05:37:24.848Z,7.55
2022-09-20T05:39:51.479Z,7.66
2022-09-20T05:42:18.008Z,7.55
2022-09-20T05:44:44.388Z,6.86
2022-09-20T05:47:11.080Z,7.36
2022-09-20T05:49:37.468Z,7.67
2022-09-20T05:52:03.846Z,7.62
2022-09-20T05:54:30.431Z,7.28
2022-09-20T05:56:57.098Z,7.68
2022-09-20T05:59:23.488Z,7.94
2022-09-20T06:01:50.276Z,7.66
2022-09-20T06:04:16.619Z,7.67
2022-09-20T06:06:43.017Z,7.23
2022-09-20T06:09:09.661Z,7.43
2022-09-20T06:11:36.101Z,7.96
2022-09-20T06:14:02.459Z,7.30
2022-09-20T06:16:29.280Z,6.94
2022-09-20T06:18:55.819Z,7.64
2022-09-20T06:21:22.191Z,7.61
2022-09-20T06:23:49.045Z,8.05
2022-09-20T06:26:15.448Z,7.95
2022-09-20T06:28:41.843Z,8.08
2022-09-20T06:31:08.645Z,7.79
2022-09-20T06:33:35.152Z,8.12
2022-09-20T06:36:01.825Z,7.81
2022-09-20T06:38:28.366Z,8.26
2022-09-20T06:40:54.811Z,8.53
2022-09-20T06:43:21.148Z,8.27
2022-09-20T06:45:47.748Z,8.04
2022-09-20T06:48:15.184Z,8.48
2022-09-20T06:50:41.720Z,8.17
2022-09-20T06:53:08.310Z,8.62
2022-09-20T06:55:34.725Z,8.81
2022-09-20T06:58:01.155Z,8.99
2022-09-20T07:00:29.236Z,9.37
2022-09-20T07:02:55.641Z,9.48
2022-09-20T07:05:22.060Z,9.64
2022-09-20T07:07:48.903Z,9.02
2022-09-20T07:10:15.629Z,9.21
2022-09-20T07:12:42.047Z,8.52
2022-09-20T07:15:08.670Z,7.86
2022-09-20T07:17:35.149Z,8.44
2022-09-20T07:20:03.224Z,8.96
2022-09-20T07:22:29.793Z,8.90
2022-09-20T07:24:56.184Z,8.79
2022-09-20T07:27:24.681Z,8.69
2022-09-20T07:29:53.109Z,8.61
2022-09-20T07:32:19.593Z,8.77
2022-09-20T07:34:45.998Z,8.94
2022-09-20T07:37:12.931Z,8.92
2022-09-20T07:39:39.539Z,9.34
2022-09-20T07:42:07.977Z,9.56
2022-09-20T07:44:34.480Z,9.00
2022-09-20T07:47:01.114Z,8.94
2022-09-20T07:49:27.728Z,9.16
2022-09-20T07:51:54.547Z,9.41
2022-09-20T07:54:20.924Z,9.45
2022-09-20T07:56:50.523Z,9.47
2022-09-20T07:59:17.277Z,9.52
2022-09-20T08:01:43.623Z,9.81
2022-09-20T08:04:09.995Z,9.34
2022-09-20T08:06:36.641Z,9.25
2022-09-20T08:09:03.067Z,9.37
2022-09-20T08:11:29.528Z,8.84
2022-09-20T08:14:11.542Z,8.96
2022-09-20T08:16:37.970Z,8.50
2022-09-20T08:19:05.369Z,9.27
2022-09-20T08:21:31.769Z,9.46
2022-09-20T08:23:58.119Z,8.78
2022-09-20T08:26:24.575Z,8.64
2022-09-20T08:28:51.426Z,9.05
2022-09-20T08:31:18.010Z,8.98
2022-09-20T08:33:44.801Z,9.43
2022-09-20T08:36:11.595Z,9.52
2022-09-20T08:41:27.404Z,9.40
2022-09-20T08:43:53.808Z,9.26
2022-09-20T08:46:23.258Z,9.31
2022-09-20T08:48:50.276Z,9.06
2022-09-20T08:51:22.757Z,9.71
2022-09-20T08:53:49.547Z,10.09
2022-09-20T08:56:16.047Z,9.60
2022-09-20T08:58:42.406Z,9.61
2022-09-20T09:01:08.740Z,9.72
2022-09-20T09:03:35.318Z,10.16
2022-09-20T09:06:08.814Z,10.10
2022-09-20T09:08:38.088Z,10.37
2022-09-20T09:11:04.898Z,10.26
2022-09-20T09:13:32.388Z,9.89
2022-09-20T09:15:59.215Z,10.10
2022-09-20T09:18:31.790Z,9.66
2022-09-20T09:20:59.063Z,9.98
2022-09-20T09:23:25.463Z,10.19
2022-09-20T09:25:52.024Z,10.37
2022-09-20T09:28:18.476Z,10.09
2022-09-20T09:30:44.856Z,9.90
2022-09-20T09:33:14.016Z,9.66
2022-09-20T09:35:40.644Z,9.74
2022-09-20T09:38:07.049Z,9.07
2022-09-20T09:40:33.604Z,9.52
2022-09-20T09:43:00.371Z,10.18
2022-09-20T09:45:27.077Z,10.03
2022-09-20T09:47:53.511Z,9.92
2022-09-20T09:50:20.310Z,9.05
2022-09-20T09:52:46.760Z,9.59
2022-09-20T09:55:13.421Z,9.77
2022-09-20T09:57:39.830Z,9.03
2022-09-20T10:00:13.211Z,9.83
2022-09-20T10:02:41.015Z,9.68
2022-09-20T10:05:07.494Z,9.33
2022-09-20T10:07:33.883Z,8.51
2022-09-20T10:10:03.112Z,8.83
2022-09-20T10:12:29.647Z,9.25
2022-09-20T10:14:58.661Z,9.17
2022-09-20T10:17:25.290Z,8.64
2022-09-20T10:19:51.639Z,8.33
2022-09-20T10:22:18.048Z,8.41
2022-09-20T10:24:49.822Z,8.27
2022-09-20T10:27:17.796Z,7.96
2022-09-20T10:29:44.227Z,8.26
2022-09-20T10:32:14.048Z,8.11
2022-09-20T10:34:41.413Z,8.29
2022-09-20T10:37:07.788Z,9.06
2022-09-20T10:39:34.236Z,8.80
2022-09-20T10:42:00.549Z,8.87
2022-09-20T10:44:26.971Z,8.89
2022-09-20T10:46:53.512Z,9.95
2022-09-20T10:49:20.091Z,10.66
2022-09-20T10:51:48.588Z,11.04
2022-09-20T10:54:15.159Z,10.78
2022-09-20T10:56:41.693Z,10.17
2022-09-20T10:59:08.122Z,10.25
2022-09-20T11:01:34.719Z,9.95
2022-09-20T11:04:01.278Z,9.94
2022-09-20T11:06:28.046Z,9.65
2022-09-20T11:08:54.788Z,9.46
2022-09-20T11:11:21.174Z,10.13
2022-09-20T11:13:47.716Z,10.83
2022-09-20T11:16:14.431Z,10.15
2022-09-20T11:18:40.974Z,9.14
2022-09-20T11:21:07.402Z,8.11
2022-09-20T11:23:34.213Z,7.46
2022-09-20T11:26:00.629Z,7.11
2022-09-20T11:28:27.237Z,6.47
2022-09-20T11:30:54.045Z,7.16
2022-09-20T11:33:20.483Z,8.27
2022-09-20T11:35:46.899Z,8.31
2022-09-20T11:38:14.020Z,8.89
2022-09-20T11:40:40.931Z,9.09
2022-09-20T11:43:07.565Z,8.63
2022-09-20T11:45:35.085Z,8.86
2022-09-20T11:48:01.652Z,9.43
2022-09-20T11:50:28.195Z,9.40
2022-09-20T11:52:54.667Z,9.62
2022-09-20T11:55:21.560Z,9.87
2022-09-20T11:57:47.936Z,10.07
2022-09-20T12:00:14.436Z,10.03
2022-09-20T12:02:41.027Z,7.99
2022-09-20T12:05:07.801Z,7.71
2022-09-20T12:07:35.669Z,8.34
2022-09-20T12:10:02.223Z,8.99
2022-09-20T12:12:28.836Z,9.06
2022-09-20T12:14:55.446Z,9.47
2022-09-20T12:17:21.791Z,9.74
2022-09-20T12:19:48.226Z,10.11
2022-09-20T12:22:15.382Z,10.44
2022-09-20T12:24:45.315Z,10.74
2022-09-20T12:27:15.165Z,10.91
2022-09-20T12:29:42.572Z,10.99
2022-09-20T12:32:09.332Z,11.18
2022-09-20T12:34:36.092Z,11.21
2022-09-20T12:37:04.946Z,11.09
2022-09-20T12:39:31.409Z,10.88
2022-09-20T12:41:57.854Z,10.78
2022-09-20T12:44:24.322Z,10.94
2022-09-20T12:46:50.783Z,11.08
2022-09-20T12:49:17.188Z,11.07
2022-09-20T12:51:43.596Z,11.01
2022-09-20T12:54:10.128Z,11.03
2022-09-20T12:56:36.826Z,10.99
2022-09-20T12:59:03.436Z,10.97
2022-09-20T13:01:29.936Z,10.79
2022-09-20T13:03:56.573Z,10.88
2022-09-20T13:06:25.684Z,10.76
2022-09-20T13:08:52.158Z,10.36
2022-09-20T13:11:18.513Z,10.44
2022-09-20T13:13:45.086Z,10.00
2022-09-20T13:16:11.591Z,10.26
2022-09-20T13:18:38.003Z,9.36
2022-09-20T13:21:04.993Z,9.67
2022-09-20T13:23:31.947Z,9.49
2022-09-20T13:25:58.378Z,9.68
2022-09-20T13:28:24.827Z,9.10
2022-09-20T13:30:51.273Z,9.02
2022-09-20T13:33:17.650Z,9.32
2022-09-20T13:35:44.318Z,9.71
2022-09-20T13:38:10.697Z,9.59
2022-09-20T13:40:38.769Z,9.55
2022-09-20T13:43:22.537Z,9.78
2022-09-20T13:45:50.333Z,9.04
2022-09-20T13:48:16.916Z,9.02
2022-09-20T13:50:47.096Z,8.78
2022-09-20T13:53:33.253Z,9.38
2022-09-20T13:56:01.861Z,9.01
2022-09-20T13:58:28.794Z,9.48
2022-09-20T14:00:55.275Z,9.61
2022-09-20T14:03:21.735Z,9.44
2022-09-20T14:05:52.677Z,9.57
2022-09-20T14:08:19.534Z,8.93
2022-09-20T14:10:46.238Z,9.16
2022-09-20T14:13:12.915Z,9.90
2022-09-20T14:15:39.562Z,10.03
2022-09-20T14:18:07.364Z,10.07
2022-09-20T14:20:33.783Z,10.14
2022-09-20T14:23:00.402Z,10.11
2022-09-20T14:25:27.024Z,10.17
2022-09-20T14:27:53.517Z,9.94
2022-09-20T14:30:19.918Z,9.55
2022-09-20T14:32:46.297Z,9.26
2022-09-20T14:35:12.824Z,9.04
2022-09-20T14:37:39.570Z,9.58
2022-09-20T14:40:06.304Z,9.85
2022-09-20T14:42:32.715Z,9.89
2022-09-20T14:44:59.102Z,9.33
2022-09-20T14:47:26.051Z,9.37
2022-09-20T14:49:52.825Z,9.29
2022-09-20T14:52:19.442Z,9.39
2022-09-20T14:54:46.518Z,9.78
2022-09-20T14:57:12.895Z,9.39
2022-09-20T14:59:39.518Z,9.02
2022-09-20T15:02:06.084Z,9.30
2022-09-20T15:04:32.943Z,9.17
2022-09-20T15:06:59.329Z,8.53
2022-09-20T15:09:26.756Z,8.93
2022-09-20T15:12:02.067Z,9.00
2022-09-20T15:14:28.745Z,9.34
2022-09-20T15:16:55.281Z,8.94
2022-09-20T15:19:22.147Z,8.86
2022-09-20T15:21:48.573Z,8.56
2022-09-20T15:24:15.186Z,8.68
2022-09-20T15:26:41.929Z,9.04
2022-09-20T15:29:08.915Z,8.52
2022-09-20T15:31:35.313Z,8.48
2022-09-20T15:34:01.696Z,8.23
2022-09-20T15:36:28.436Z,8.66
2022-09-20T15:38:55.184Z,8.96
2022-09-20T15:41:21.523Z,8.62
2022-09-20T15:43:48.102Z,8.40
2022-09-20T15:46:14.704Z,8.66
2022-09-20T15:48:41.109Z,8.56
2022-09-20T15:51:07.606Z,8.78
2022-09-20T15:53:36.083Z,8.65
2022-09-20T15:56:02.585Z,8.46
2022-09-20T15:58:33.510Z,8.62
2022-09-20T16:01:02.151Z,8.56
2022-09-20T16:03:30.987Z,8.67
2022-09-20T16:06:01.957Z,8.00
2022-09-20T16:08:30.935Z,8.06
2022-09-20T16:10:58.110Z,8.42
2022-09-20T16:13:24.525Z,8.67
2022-09-20T16:15:53.783Z,8.59
2022-09-20T16:18:20.467Z,8.36
2022-09-20T16:20:47.062Z,8.15
2022-09-20T16:23:13.549Z,7.96
2022-09-20T16:25:40.199Z,8.43
2022-09-20T16:28:07.004Z,8.19
2022-09-20T16:30:33.432Z,7.58
2022-09-20T16:32:59.879Z,8.14
2022-09-20T16:35:26.236Z,8.22
2022-09-20T16:37:52.589Z,8.43
2022-09-20T16:40:20.112Z,8.45
2022-09-20T16:42:51.479Z,8.63
2022-09-20T16:45:18.730Z,8.50
2022-09-20T16:47:45.425Z,8.62
2022-09-20T16:50:11.771Z,8.13
2022-09-20T16:52:38.129Z,8.39
2022-09-20T16:55:04.977Z,7.94
2022-09-20T16:57:31.471Z,8.46
2022-09-20T16:59:57.914Z,8.19
2022-09-20T17:02:24.330Z,8.01
2022-09-20T17:04:50.995Z,7.99
2022-09-20T17:07:17.647Z,8.02
2022-09-20T17:09:44.898Z,8.13
2022-09-20T17:12:11.257Z,8.10
2022-09-20T17:14:37.606Z,8.52
2022-09-20T17:17:04.175Z,8.53
2022-09-20T17:19:30.558Z,8.33
2022-09-20T17:21:57.949Z,8.43
2022-09-20T17:24:24.420Z,8.26
2022-09-20T17:26:51.280Z,8.33
2022-09-20T17:29:17.627Z,7.20
2022-09-20T17:31:44.095Z,8.06
2022-09-20T17:34:10.543Z,8.32
2022-09-20T17:36:36.961Z,8.46
2022-09-20T17:39:04.594Z,8.32
2022-09-20T17:41:31.393Z,8.03
2022-09-20T17:43:57.920Z,8.16
2022-09-20T17:46:24.489Z,8.44
2022-09-20T17:48:51.031Z,8.64
2022-09-20T17:51:17.564Z,8.53
2022-09-20T17:53:44.021Z,8.49
2022-09-20T17:56:10.357Z,8.34
2022-09-20T17:58:36.769Z,8.36
2022-09-20T18:01:03.184Z,7.87
2022-09-20T18:03:30.005Z,7.41
2022-09-20T18:05:56.774Z,7.99
2022-09-20T18:08:23.261Z,7.77
2022-09-20T18:10:49.638Z,8.34
2022-09-20T18:13:15.989Z,8.58
2022-09-20T18:15:42.664Z,8.20
2022-09-20T18:18:09.164Z,8.53
2022-09-20T18:20:35.868Z,8.36
2022-09-20T18:23:02.477Z,7.92
2022-09-20T18:25:28.968Z,8.00
2022-09-20T18:27:55.534Z,7.59
2022-09-20T18:30:22.070Z,7.82
2022-09-20T18:32:48.462Z,7.35
2022-09-20T18:35:15.061Z,7.46
2022-09-20T18:37:41.515Z,7.12
2022-09-20T18:40:08.623Z,7.05
2022-09-20T18:42:35.190Z,7.61
2022-09-20T18:45:01.704Z,7.41
2022-09-20T18:47:28.188Z,7.55
2022-09-20T18:49:54.998Z,7.87
2022-09-20T18:52:21.407Z,7.28
2022-09-20T18:54:49.832Z,7.34
2022-09-20T18:57:16.217Z,7.57
2022-09-20T18:59:53.995Z,7.63
2022-09-20T19:02:21.682Z,8.04
2022-09-20T19:04:48.171Z,7.47
2022-09-20T19:07:14.903Z,7.50
2022-09-20T19:09:41.282Z,7.45
2022-09-20T19:12:10.540Z,6.86
2022-09-20T19:14:37.097Z,7.36
2022-09-20T19:17:03.957Z,7.51
2022-09-20T19:19:31.155Z,7.71
2022-09-20T19:21:57.776Z,7.86
2022-09-20T19:24:25.415Z,8.05
2022-09-20T19:26:52.201Z,8.05
2022-09-20T19:29:18.586Z,7.92
2022-09-20T19:31:44.925Z,7.87
2022-09-20T19:34:11.541Z,7.99
2022-09-20T19:36:37.954Z,8.00
2022-09-20T19:39:04.355Z,7.94
2022-09-20T19:41:30.963Z,7.80
2022-09-20T19:43:57.889Z,7.52
2022-09-20T19:46:24.621Z,6.94
2022-09-20T19:48:51.330Z,7.64
2022-09-20T19:51:17.903Z,7.54
2022-09-20T19:53:44.513Z,7.38
2022-09-20T19:56:11.321Z,7.33
2022-09-20T19:58:37.688Z,7.12
2022-09-20T20:01:04.127Z,7.44
2022-09-20T20:03:30.722Z,7.13
2022-09-20T20:05:57.338Z,6.50
2022-09-20T20:08:23.682Z,6.99
2022-09-20T20:10:50.468Z,6.53
2022-09-20T20:13:23.094Z,5.69
2022-09-20T20:15:49.888Z,6.19
2022-09-20T20:18:16.911Z,6.36
2022-09-20T20:20:43.543Z,6.54
2022-09-20T20:23:10.262Z,6.76
2022-09-20T20:25:36.700Z,6.37
2022-09-20T20:28:03.241Z,6.84
2022-09-20T20:30:29.680Z,7.12
2022-09-20T20:32:56.287Z,6.75
2022-09-20T20:35:24.926Z,6.39
2022-09-20T20:37:52.368Z,5.92
2022-09-20T20:40:18.830Z,6.40
2022-09-20T20:42:45.425Z,7.09
2022-09-20T20:45:11.770Z,6.08
2022-09-20T20:47:38.520Z,6.50
2022-09-20T20:50:04.858Z,5.98
2022-09-20T20:52:32.260Z,6.32
2022-09-20T20:55:01.091Z,6.12
2022-09-20T20:57:27.797Z,6.30
2022-09-20T20:59:54.286Z,6.71
2022-09-20T21:02:21.099Z,6.67
2022-09-20T21:04:47.988Z,6.43
2022-09-20T21:07:14.359Z,7.00
2022-09-20T21:09:41.315Z,6.47
2022-09-20T21:12:07.955Z,6.63
2022-09-20T21:14:35.133Z,6.79
2022-09-20T21:17:01.836Z,6.21
2022-09-20T21:19:28.823Z,6.21
2022-09-20T21:21:58.104Z,6.33
2022-09-20T21:24:25.372Z,5.75
2022-09-20T21:26:51.818Z,5.84
2022-09-20T21:29:19.395Z,5.63
2022-09-20T21:31:45.994Z,6.34
2022-09-20T21:34:12.493Z,6.38
2022-09-20T21:36:43.124Z,6.18
2022-09-20T21:39:10.453Z,6.73
2022-09-20T21:41:44.153Z,7.13
2022-09-20T21:44:11.346Z,7.17
2022-09-20T21:46:38.200Z,6.51
2022-09-20T21:49:04.578Z,6.59
2022-09-20T21:51:31.607Z,7.01
2022-09-20T21:54:01.762Z,6.31
2022-09-20T21:56:28.668Z,5.90
2022-09-20T21:58:55.835Z,6.48
2022-09-20T22:01:22.316Z,6.45
2022-09-20T22:03:48.879Z,6.04
2022-09-20T22:06:15.761Z,6.00
2022-09-20T22:08:42.505Z,6.20
2022-09-20T22:11:13.441Z,6.15
2022-09-20T22:13:41.318Z,6.26
2022-09-20T22:16:08.140Z,6.24
2022-09-20T22:18:34.821Z,6.64
2022-09-20T22:21:01.468Z,6.61
2022-09-20T22:23:27.865Z,6.07
2022-09-20T22:25:54.300Z,6.32
2022-09-20T22:28:21.289Z,6.39
2022-09-20T22:30:47.840Z,6.30
2022-09-20T22:33:14.503Z,6.34
2022-09-20T22:35:41.055Z,6.38
2022-09-20T22:38:07.571Z,5.67
2022-09-20T22:40:34.207Z,6.25
2022-09-20T22:43:00.876Z,5.82
2022-09-20T22:45:27.370Z,6.31
2022-09-20T22:47:53.738Z,6.60
2022-09-20T22:50:20.610Z,6.65
2022-09-20T22:52:46.997Z,6.54
2022-09-20T22:55:13.350Z,6.63
2022-09-20T22:57:40.402Z,6.73
2022-09-20T23:00:06.779Z,6.61
2022-09-20T23:02:33.327Z,6.44
2022-09-20T23:05:00.121Z,6.12
2022-09-20T23:07:26.655Z,6.24
2022-09-20T23:09:53.046Z,6.57
2022-09-20T23:12:19.766Z,6.68
2022-09-20T23:14:46.171Z,5.81
2022-09-20T23:17:12.749Z,6.44
2022-09-20T23:19:39.120Z,6.19
2022-09-20T23:22:05.496Z,6.41
2022-09-20T23:24:32.035Z,6.07
2022-09-20T23:26:58.544Z,6.53
2022-09-20T23:29:25.101Z,5.74
2022-09-20T23:31:51.677Z,6.06
2022-09-20T23:34:18.419Z,6.29
2022-09-20T23:36:44.910Z,6.61
2022-09-20T23:39:11.404Z,6.73
2022-09-20T23:41:38.102Z,6.50
2022-09-20T23:44:04.721Z,6.33
2022-09-20T23:46:31.115Z,5.97
2022-09-20T23:48:57.662Z,6.02
2022-09-20T23:51:24.214Z,5.70
2022-09-20T23:53:50.585Z,5.41
2022-09-20T23:56:16.994Z,5.28
2022-09-20T23:58:43.370Z,4.83
